sensor_id;sensor_type;location;lat;lon;timestamp;pressure;altitude;pressure_sealevel;temperature;humidity
64668;BME280;51077;42.716;23.344;2024-03-23T00:53:30;95411.97;;;11.31;36.45
64668;BME280;51077;42.716;23.344;2024-03-23T00:55:55;95414.50;;;11.29;36.66
64668;BME280;51077;42.716;23.344;2024-03-23T00:58:21;95408.25;;;11.28;36.46
64668;BME280;51077;42.716;23.344;2024-03-23T01:00:46;95410.53;;;11.24;36.43
64668;BME280;51077;42.716;23.344;2024-03-23T01:03:12;95406.81;;;11.22;36.64
64668;BME280;51077;42.716;23.344;2024-03-23T01:05:37;95399.81;;;11.21;36.56
64668;BME280;51077;42.716;23.344;2024-03-23T01:08:02;95405.06;;;11.19;36.63
64668;BME280;51077;42.716;23.344;2024-03-23T01:10:28;95397.88;;;11.16;36.69
64668;BME280;51077;42.716;23.344;2024-03-23T01:12:53;95401.09;;;11.14;36.75
64668;BME280;51077;42.716;23.344;2024-03-23T01:15:19;95389.91;;;11.12;36.58
64668;BME280;51077;42.716;23.344;2024-03-23T01:17:44;95400.16;;;11.12;36.50
64668;BME280;51077;42.716;23.344;2024-03-23T01:20:09;95408.13;;;11.10;36.75
64668;BME280;51077;42.716;23.344;2024-03-23T01:22:35;95396.19;;;11.07;36.88
64668;BME280;51077;42.716;23.344;2024-03-23T01:25:01;95409.97;;;11.01;36.90
64668;BME280;51077;42.716;23.344;2024-03-23T01:27:26;95402.22;;;11.00;36.82
64668;BME280;51077;42.716;23.344;2024-03-23T01:29:52;95400.00;;;10.98;36.91
64668;BME280;51077;42.716;23.344;2024-03-23T01:32:18;95410.75;;;10.96;36.81
64668;BME280;51077;42.716;23.344;2024-03-23T01:34:44;95403.03;;;10.95;36.99
64668;BME280;51077;42.716;23.344;2024-03-23T01:37:09;95408.78;;;10.91;36.93
64668;BME280;51077;42.716;23.344;2024-03-23T01:39:34;95409.78;;;10.88;36.93
64668;BME280;51077;42.716;23.344;2024-03-23T01:42:00;95406.59;;;10.84;36.96
64668;BME280;51077;42.716;23.344;2024-03-23T01:44:25;95405.09;;;10.83;36.90
64668;BME280;51077;42.716;23.344;2024-03-23T01:46:50;95397.13;;;10.79;37.09
64668;BME280;51077;42.716;23.344;2024-03-23T01:49:16;95409.38;;;10.78;37.22
64668;BME280;51077;42.716;23.344;2024-03-23T01:51:42;95402.19;;;10.75;37.17
64668;BME280;51077;42.716;23.344;2024-03-23T01:54:09;95394.44;;;10.74;37.11
64668;BME280;51077;42.716;23.344;2024-03-23T01:56:35;95401.19;;;10.73;37.23
64668;BME280;51077;42.716;23.344;2024-03-23T01:59:06;95402.72;;;10.68;37.21
64668;BME280;51077;42.716;23.344;2024-03-23T02:01:32;95396.50;;;10.62;37.22
64668;BME280;51077;42.716;23.344;2024-03-23T02:03:58;95404.50;;;10.60;37.40
64668;BME280;51077;42.716;23.344;2024-03-23T02:06:24;95404.03;;;10.56;37.45
64668;BME280;51077;42.716;23.344;2024-03-23T02:08:50;95403.03;;;10.53;37.53
64668;BME280;51077;42.716;23.344;2024-03-23T02:11:15;95402.81;;;10.51;37.60
64668;BME280;51077;42.716;23.344;2024-03-23T02:13:40;95406.06;;;10.50;37.53
64668;BME280;51077;42.716;23.344;2024-03-23T02:16:06;95403.06;;;10.48;37.61
64668;BME280;51077;42.716;23.344;2024-03-23T02:18:32;95408.81;;;10.44;37.69
64668;BME280;51077;42.716;23.344;2024-03-23T02:20:58;95411.34;;;10.42;37.49
64668;BME280;51077;42.716;23.344;2024-03-23T02:23:23;95404.38;;;10.41;37.57
64668;BME280;51077;42.716;23.344;2024-03-23T02:25:49;95412.13;;;10.37;37.68
64668;BME280;51077;42.716;23.344;2024-03-23T02:28:15;95417.59;;;10.37;37.56
64668;BME280;51077;42.716;23.344;2024-03-23T02:30:40;95419.88;;;10.33;37.46
64668;BME280;51077;42.716;23.344;2024-03-23T02:33:06;95415.13;;;10.34;37.60
64668;BME280;51077;42.716;23.344;2024-03-23T02:35:31;95420.66;;;10.28;37.47
64668;BME280;51077;42.716;23.344;2024-03-23T02:37:56;95416.66;;;10.23;37.86
64668;BME280;51077;42.716;23.344;2024-03-23T02:40:23;95413.44;;;10.19;37.96
64668;BME280;51077;42.716;23.344;2024-03-23T02:42:48;95413.91;;;10.18;37.99
64668;BME280;51077;42.716;23.344;2024-03-23T02:45:14;95404.72;;;10.15;37.94
64668;BME280;51077;42.716;23.344;2024-03-23T02:47:39;95411.94;;;10.13;38.09
64668;BME280;51077;42.716;23.344;2024-03-23T02:50:05;95402.97;;;10.12;38.05
64668;BME280;51077;42.716;23.344;2024-03-23T02:52:30;95404.97;;;10.12;37.85
64668;BME280;51077;42.716;23.344;2024-03-23T02:54:56;95405.75;;;10.06;38.01
64668;BME280;51077;42.716;23.344;2024-03-23T02:57:22;95410.50;;;10.06;38.09
64668;BME280;51077;42.716;23.344;2024-03-23T02:59:47;95412.47;;;10.05;38.01
64668;BME280;51077;42.716;23.344;2024-03-23T03:02:13;95406.00;;;10.03;38.11
64668;BME280;51077;42.716;23.344;2024-03-23T03:04:38;95405.00;;;10.00;38.09
64668;BME280;51077;42.716;23.344;2024-03-23T03:07:04;95404.53;;;9.96;38.24
64668;BME280;51077;42.716;23.344;2024-03-23T03:09:29;95400.81;;;9.94;38.23
64668;BME280;51077;42.716;23.344;2024-03-23T03:11:55;95406.56;;;9.90;38.32
64668;BME280;51077;42.716;23.344;2024-03-23T03:14:20;95408.03;;;9.91;38.17
64668;BME280;51077;42.716;23.344;2024-03-23T03:16:46;95407.81;;;9.89;38.33
64668;BME280;51077;42.716;23.344;2024-03-23T03:19:11;95404.06;;;9.87;38.27
64668;BME280;51077;42.716;23.344;2024-03-23T03:21:37;95407.06;;;9.83;38.30
64668;BME280;51077;42.716;23.344;2024-03-23T03:24:03;95404.56;;;9.85;38.29
64668;BME280;51077;42.716;23.344;2024-03-23T03:26:28;95401.56;;;9.83;38.39
64668;BME280;51077;42.716;23.344;2024-03-23T03:28:53;95414.78;;;9.79;38.39
64668;BME280;51077;42.716;23.344;2024-03-23T03:31:20;95420.03;;;9.77;38.47
64668;BME280;51077;42.716;23.344;2024-03-23T03:33:46;95420.03;;;9.77;38.25
64668;BME280;51077;42.716;23.344;2024-03-23T03:36:11;95412.59;;;9.72;38.65
64668;BME280;51077;42.716;23.344;2024-03-23T03:38:36;95404.38;;;9.72;38.16
64668;BME280;51077;42.716;23.344;2024-03-23T03:41:03;95405.63;;;9.71;38.38
64668;BME280;51077;42.716;23.344;2024-03-23T03:43:29;95409.59;;;9.70;38.42
64668;BME280;51077;42.716;23.344;2024-03-23T03:45:56;95414.09;;;9.67;38.56
64668;BME280;51077;42.716;23.344;2024-03-23T03:48:22;95408.63;;;9.67;38.54
64668;BME280;51077;42.716;23.344;2024-03-23T03:50:47;95411.59;;;9.64;38.43
64668;BME280;51077;42.716;23.344;2024-03-23T03:53:12;95411.34;;;9.62;38.78
64668;BME280;51077;42.716;23.344;2024-03-23T03:55:38;95416.84;;;9.62;38.65
64668;BME280;51077;42.716;23.344;2024-03-23T03:58:03;95412.13;;;9.62;38.51
64668;BME280;51077;42.716;23.344;2024-03-23T04:00:30;95413.59;;;9.57;38.68
64668;BME280;51077;42.716;23.344;2024-03-23T04:02:56;95415.84;;;9.59;38.68
64668;BME280;51077;42.716;23.344;2024-03-23T04:05:22;95412.13;;;9.56;38.64
64668;BME280;51077;42.716;23.344;2024-03-23T04:07:47;95410.63;;;9.55;38.41
64668;BME280;51077;42.716;23.344;2024-03-23T04:10:13;95416.34;;;9.52;38.69
64668;BME280;51077;42.716;23.344;2024-03-23T04:12:39;95420.34;;;9.51;38.78
64668;BME280;51077;42.716;23.344;2024-03-23T04:15:05;95414.13;;;9.50;38.57
64668;BME280;51077;42.716;23.344;2024-03-23T04:17:31;95421.59;;;9.50;38.54
64668;BME280;51077;42.716;23.344;2024-03-23T04:19:58;95420.88;;;9.49;38.51
64668;BME280;51077;42.716;23.344;2024-03-23T04:22:23;95426.06;;;9.47;38.51
64668;BME280;51077;42.716;23.344;2024-03-23T04:24:57;95423.84;;;9.46;38.76
64668;BME280;51077;42.716;23.344;2024-03-23T04:27:23;95415.38;;;9.44;38.89
64668;BME280;51077;42.716;23.344;2024-03-23T04:29:49;95420.34;;;9.51;40.80
64668;BME280;51077;42.716;23.344;2024-03-23T04:32:15;95422.56;;;9.52;40.38
64668;BME280;51077;42.716;23.344;2024-03-23T04:34:41;95422.06;;;9.60;40.47
64668;BME280;51077;42.716;23.344;2024-03-23T04:37:07;95429.53;;;9.76;40.79
64668;BME280;51077;42.716;23.344;2024-03-23T04:39:33;95427.72;;;9.95;41.69
64668;BME280;51077;42.716;23.344;2024-03-23T04:41:58;95424.91;;;10.12;41.02
64668;BME280;51077;42.716;23.344;2024-03-23T04:44:24;95424.13;;;10.28;40.82
64668;BME280;51077;42.716;23.344;2024-03-23T04:46:49;95425.28;;;10.44;40.44
64668;BME280;51077;42.716;23.344;2024-03-23T04:49:14;95432.69;;;10.61;40.11
64668;BME280;51077;42.716;23.344;2024-03-23T04:51:40;95433.84;;;10.76;39.56
64668;BME280;51077;42.716;23.344;2024-03-23T04:54:11;95434.03;;;10.90;39.01
64668;BME280;51077;42.716;23.344;2024-03-23T04:56:36;95435.72;;;10.98;38.68
64668;BME280;51077;42.716;23.344;2024-03-23T04:59:02;95449.19;;;10.96;38.79
64668;BME280;51077;42.716;23.344;2024-03-23T05:01:29;95436.25;;;10.91;39.91
64668;BME280;51077;42.716;23.344;2024-03-23T05:03:56;95447.38;;;11.04;52.72
64668;BME280;51077;42.716;23.344;2024-03-23T05:06:22;95437.13;;;11.05;52.67
64668;BME280;51077;42.716;23.344;2024-03-23T05:08:47;95441.41;;;11.00;51.13
64668;BME280;51077;42.716;23.344;2024-03-23T05:11:13;95440.22;;;10.96;50.71
64668;BME280;51077;42.716;23.344;2024-03-23T05:13:38;95442.00;;;10.93;50.34
64668;BME280;51077;42.716;23.344;2024-03-23T05:16:04;95440.25;;;10.90;50.10
64668;BME280;51077;42.716;23.344;2024-03-23T05:18:29;95437.72;;;10.92;49.51
64668;BME280;51077;42.716;23.344;2024-03-23T05:20:58;95434.22;;;10.97;48.77
64668;BME280;51077;42.716;23.344;2024-03-23T05:23:25;95429.94;;;11.02;48.16
64668;BME280;51077;42.716;23.344;2024-03-23T05:25:51;95431.16;;;11.06;47.65
64668;BME280;51077;42.716;23.344;2024-03-23T05:28:19;95428.59;;;11.14;47.00
64668;BME280;51077;42.716;23.344;2024-03-23T05:30:52;95431.53;;;11.22;46.27
64668;BME280;51077;42.716;23.344;2024-03-23T05:33:19;95430.44;;;11.30;45.65
64668;BME280;51077;42.716;23.344;2024-03-23T05:35:44;95441.38;;;11.42;45.29
64668;BME280;51077;42.716;23.344;2024-03-23T05:38:10;95436.50;;;11.53;44.87
64668;BME280;51077;42.716;23.344;2024-03-23T05:40:36;95431.66;;;11.65;44.11
64668;BME280;51077;42.716;23.344;2024-03-23T05:43:03;95429.97;;;11.87;43.53
64668;BME280;51077;42.716;23.344;2024-03-23T05:45:29;95442.78;;;12.03;42.93
64668;BME280;51077;42.716;23.344;2024-03-23T05:47:54;95429.59;;;12.20;42.50
64668;BME280;51077;42.716;23.344;2024-03-23T05:50:22;95434.81;;;12.43;41.45
64668;BME280;51077;42.716;23.344;2024-03-23T05:52:47;95433.63;;;12.57;40.97
64668;BME280;51077;42.716;23.344;2024-03-23T05:55:12;95432.88;;;12.75;40.66
64668;BME280;51077;42.716;23.344;2024-03-23T05:57:38;95437.69;;;12.88;40.27
64668;BME280;51077;42.716;23.344;2024-03-23T06:00:05;95431.44;;;13.06;39.80
64668;BME280;51077;42.716;23.344;2024-03-23T06:02:35;95433.69;;;13.21;39.39
64668;BME280;51077;42.716;23.344;2024-03-23T06:05:01;95430.72;;;13.38;38.82
64668;BME280;51077;42.716;23.344;2024-03-23T06:07:27;95425.34;;;13.59;38.41
64668;BME280;51077;42.716;23.344;2024-03-23T06:09:52;95423.47;;;13.80;37.88
64668;BME280;51077;42.716;23.344;2024-03-23T06:12:18;95426.84;;;14.00;37.44
64668;BME280;51077;42.716;23.344;2024-03-23T06:14:43;95421.75;;;14.17;37.02
64668;BME280;51077;42.716;23.344;2024-03-23T06:17:09;95428.31;;;14.41;36.64
64668;BME280;51077;42.716;23.344;2024-03-23T06:19:34;95426.19;;;14.60;36.16
64668;BME280;51077;42.716;23.344;2024-03-23T06:22:00;95423.16;;;14.85;35.82
64668;BME280;51077;42.716;23.344;2024-03-23T06:24:25;95423.38;;;15.07;35.43
64668;BME280;51077;42.716;23.344;2024-03-23T06:26:50;95422.53;;;15.33;34.94
64668;BME280;51077;42.716;23.344;2024-03-23T06:29:16;95432.47;;;15.57;34.54
64668;BME280;51077;42.716;23.344;2024-03-23T06:31:41;95425.31;;;15.83;34.16
64668;BME280;51077;42.716;23.344;2024-03-23T06:34:07;95426.22;;;16.06;33.81
64668;BME280;51077;42.716;23.344;2024-03-23T06:36:32;95427.09;;;16.30;33.50
64668;BME280;51077;42.716;23.344;2024-03-23T06:38:58;95420.75;;;16.58;32.81
64668;BME280;51077;42.716;23.344;2024-03-23T06:41:24;95421.78;;;16.83;32.39
64668;BME280;51077;42.716;23.344;2024-03-23T06:43:49;95421.47;;;17.10;31.90
64668;BME280;51077;42.716;23.344;2024-03-23T06:46:15;95418.19;;;17.34;31.51
64668;BME280;51077;42.716;23.344;2024-03-23T06:48:40;95422.44;;;17.66;31.01
64668;BME280;51077;42.716;23.344;2024-03-23T06:51:05;95415.25;;;17.94;30.67
64668;BME280;51077;42.716;23.344;2024-03-23T06:53:31;95413.91;;;18.18;30.43
64668;BME280;51077;42.716;23.344;2024-03-23T06:55:57;95419.59;;;18.43;30.23
64668;BME280;51077;42.716;23.344;2024-03-23T06:58:24;95416.53;;;18.64;29.73
64668;BME280;51077;42.716;23.344;2024-03-23T07:00:50;95415.16;;;18.88;29.37
64668;BME280;51077;42.716;23.344;2024-03-23T07:03:16;95413.88;;;19.14;29.17
64668;BME280;51077;42.716;23.344;2024-03-23T07:05:42;95414.06;;;19.41;28.78
64668;BME280;51077;42.716;23.344;2024-03-23T07:08:08;95415.41;;;19.65;29.13
64668;BME280;51077;42.716;23.344;2024-03-23T07:10:34;95413.34;;;19.90;28.44
64668;BME280;51077;42.716;23.344;2024-03-23T07:12:59;95411.25;;;20.16;28.25
64668;BME280;51077;42.716;23.344;2024-03-23T07:15:25;95408.38;;;20.41;27.91
64668;BME280;51077;42.716;23.344;2024-03-23T07:17:50;95405.66;;;20.68;27.61
64668;BME280;51077;42.716;23.344;2024-03-23T07:20:16;95405.94;;;20.89;27.04
64668;BME280;51077;42.716;23.344;2024-03-23T07:22:41;95396.78;;;21.06;31.38
64668;BME280;51077;42.716;23.344;2024-03-23T07:25:07;95397.75;;;21.18;31.78
64668;BME280;51077;42.716;23.344;2024-03-23T07:27:33;95391.88;;;21.24;28.13
64668;BME280;51077;42.716;23.344;2024-03-23T07:29:59;95389.75;;;21.32;27.17
64668;BME280;51077;42.716;23.344;2024-03-23T07:32:25;95396.84;;;21.43;26.22
64668;BME280;51077;42.716;23.344;2024-03-23T07:34:52;95388.09;;;21.56;25.69
64668;BME280;51077;42.716;23.344;2024-03-23T07:37:17;95389.16;;;21.70;25.17
64668;BME280;51077;42.716;23.344;2024-03-23T07:39:42;95382.56;;;21.85;24.70
64668;BME280;51077;42.716;23.344;2024-03-23T07:42:08;95390.69;;;22.00;24.52
64668;BME280;51077;42.716;23.344;2024-03-23T07:44:34;95386.16;;;22.15;24.30
64668;BME280;51077;42.716;23.344;2024-03-23T07:47:03;95380.00;;;22.26;24.33
64668;BME280;51077;42.716;23.344;2024-03-23T07:49:28;95379.56;;;22.39;24.14
64668;BME280;51077;42.716;23.344;2024-03-23T07:51:54;95379.41;;;22.56;23.75
64668;BME280;51077;42.716;23.344;2024-03-23T07:54:20;95367.88;;;22.72;23.65
64668;BME280;51077;42.716;23.344;2024-03-23T07:56:45;95371.84;;;22.88;23.44
64668;BME280;51077;42.716;23.344;2024-03-23T07:59:10;95370.66;;;23.01;23.26
64668;BME280;51077;42.716;23.344;2024-03-23T08:01:36;95372.97;;;23.14;23.04
64668;BME280;51077;42.716;23.344;2024-03-23T08:04:02;95376.03;;;23.28;22.82
64668;BME280;51077;42.716;23.344;2024-03-23T08:06:27;95370.97;;;23.36;22.74
64668;BME280;51077;42.716;23.344;2024-03-23T08:08:55;95365.31;;;23.46;22.52
64668;BME280;51077;42.716;23.344;2024-03-23T08:11:27;95364.38;;;23.63;22.44
64668;BME280;51077;42.716;23.344;2024-03-23T08:13:54;95366.41;;;23.72;22.24
64668;BME280;51077;42.716;23.344;2024-03-23T08:16:20;95371.38;;;23.83;22.26
64668;BME280;51077;42.716;23.344;2024-03-23T08:18:46;95363.31;;;23.99;22.44
64668;BME280;51077;42.716;23.344;2024-03-23T08:21:11;95362.91;;;24.14;22.41
64668;BME280;51077;42.716;23.344;2024-03-23T08:23:37;95366.03;;;24.30;22.30
64668;BME280;51077;42.716;23.344;2024-03-23T08:26:04;95356.88;;;24.51;22.16
64668;BME280;51077;42.716;23.344;2024-03-23T08:28:31;95354.38;;;24.67;21.82
64668;BME280;51077;42.716;23.344;2024-03-23T08:31:01;95359.03;;;24.86;21.75
64668;BME280;51077;42.716;23.344;2024-03-23T08:33:26;95355.06;;;25.00;21.31
64668;BME280;51077;42.716;23.344;2024-03-23T08:35:58;95349.72;;;25.16;21.36
64668;BME280;51077;42.716;23.344;2024-03-23T08:38:24;95350.00;;;25.32;21.25
64668;BME280;51077;42.716;23.344;2024-03-23T08:41:16;95339.00;;;25.48;20.85
64668;BME280;51077;42.716;23.344;2024-03-23T08:43:42;95334.72;;;25.58;21.24
64668;BME280;51077;42.716;23.344;2024-03-23T08:46:09;95337.03;;;25.74;21.39
64668;BME280;51077;42.716;23.344;2024-03-23T08:48:36;95333.63;;;25.87;20.86
64668;BME280;51077;42.716;23.344;2024-03-23T08:51:02;95333.84;;;25.91;20.76
64668;BME280;51077;42.716;23.344;2024-03-23T08:53:28;95319.31;;;25.95;20.67
64668;BME280;51077;42.716;23.344;2024-03-23T08:55:55;95317.69;;;26.03;20.31
64668;BME280;51077;42.716;23.344;2024-03-23T08:58:22;95318.88;;;26.12;20.19
64668;BME280;51077;42.716;23.344;2024-03-23T09:00:50;95318.81;;;26.24;20.25
64668;BME280;51077;42.716;23.344;2024-03-23T09:03:16;95316.06;;;26.38;20.27
64668;BME280;51077;42.716;23.344;2024-03-23T09:05:41;95309.19;;;26.52;20.01
64668;BME280;51077;42.716;23.344;2024-03-23T09:08:07;95303.13;;;26.70;19.88
64668;BME280;51077;42.716;23.344;2024-03-23T09:10:38;95296.06;;;26.83;20.01
64668;BME280;51077;42.716;23.344;2024-03-23T09:13:04;95295.97;;;26.94;19.93
64668;BME280;51077;42.716;23.344;2024-03-23T09:15:29;95294.06;;;27.11;19.66
64668;BME280;51077;42.716;23.344;2024-03-23T09:17:54;95289.16;;;27.25;19.41
64668;BME280;51077;42.716;23.344;2024-03-23T09:20:20;95284.06;;;27.35;19.09
64668;BME280;51077;42.716;23.344;2024-03-23T09:22:48;95274.34;;;27.38;19.23
64668;BME280;51077;42.716;23.344;2024-03-23T09:25:13;95265.69;;;27.48;19.17
64668;BME280;51077;42.716;23.344;2024-03-23T09:27:38;95266.28;;;27.60;19.21
64668;BME280;51077;42.716;23.344;2024-03-23T09:30:04;95268.50;;;27.75;19.19
64668;BME280;51077;42.716;23.344;2024-03-23T09:32:30;95257.19;;;27.89;19.05
64668;BME280;51077;42.716;23.344;2024-03-23T09:34:55;95260.28;;;28.09;18.81
64668;BME280;51077;42.716;23.344;2024-03-23T09:37:21;95256.16;;;28.26;18.94
64668;BME280;51077;42.716;23.344;2024-03-23T09:39:46;95254.22;;;28.44;18.49
64668;BME280;51077;42.716;23.344;2024-03-23T09:42:12;95242.22;;;28.60;18.32
64668;BME280;51077;42.716;23.344;2024-03-23T09:44:37;95235.59;;;28.69;18.16
64668;BME280;51077;42.716;23.344;2024-03-23T09:47:03;95234.03;;;28.81;17.86
64668;BME280;51077;42.716;23.344;2024-03-23T09:49:29;95228.44;;;28.97;17.78
64668;BME280;51077;42.716;23.344;2024-03-23T09:51:55;95229.22;;;29.16;17.80
64668;BME280;51077;42.716;23.344;2024-03-23T09:54:21;95227.38;;;29.38;17.86
64668;BME280;51077;42.716;23.344;2024-03-23T09:56:47;95222.34;;;29.52;17.59
64668;BME280;51077;42.716;23.344;2024-03-23T09:59:12;95223.13;;;29.71;17.71
64668;BME280;51077;42.716;23.344;2024-03-23T10:01:38;95211.28;;;29.92;17.28
64668;BME280;51077;42.716;23.344;2024-03-23T10:04:04;95208.22;;;30.04;18.31
64668;BME280;51077;42.716;23.344;2024-03-23T10:06:29;95202.88;;;30.12;18.45
64668;BME280;51077;42.716;23.344;2024-03-23T10:08:54;95192.88;;;30.27;18.48
64668;BME280;51077;42.716;23.344;2024-03-23T10:11:20;95196.63;;;30.51;17.97
64668;BME280;51077;42.716;23.344;2024-03-23T10:13:46;95189.28;;;30.82;17.93
64668;BME280;51077;42.716;23.344;2024-03-23T10:16:20;95188.22;;;31.11;17.61
64668;BME280;51077;42.716;23.344;2024-03-23T10:18:46;95183.44;;;31.36;17.54
64668;BME280;51077;42.716;23.344;2024-03-23T10:21:11;95184.34;;;31.62;17.48
64668;BME280;51077;42.716;23.344;2024-03-23T10:23:44;95183.00;;;31.85;17.16
64668;BME280;51077;42.716;23.344;2024-03-23T10:26:21;95179.25;;;32.00;17.29
64668;BME280;51077;42.716;23.344;2024-03-23T10:28:58;95168.50;;;32.21;17.02
64668;BME280;51077;42.716;23.344;2024-03-23T10:31:30;95166.31;;;32.41;16.63
64668;BME280;51077;42.716;23.344;2024-03-23T10:33:56;95166.03;;;32.55;16.73
64668;BME280;51077;42.716;23.344;2024-03-23T10:36:23;95161.66;;;32.76;16.58
64668;BME280;51077;42.716;23.344;2024-03-23T10:38:50;95156.97;;;32.87;16.37
64668;BME280;51077;42.716;23.344;2024-03-23T10:41:17;95144.66;;;33.02;16.58
64668;BME280;51077;42.716;23.344;2024-03-23T10:43:45;95147.34;;;33.22;16.52
64668;BME280;51077;42.716;23.344;2024-03-23T10:46:11;95137.75;;;33.37;16.00
64668;BME280;51077;42.716;23.344;2024-03-23T10:48:37;95128.16;;;33.50;16.28
64668;BME280;51077;42.716;23.344;2024-03-23T10:51:03;95124.41;;;33.70;15.98
64668;BME280;51077;42.716;23.344;2024-03-23T10:53:30;95116.13;;;33.82;15.63
64668;BME280;51077;42.716;23.344;2024-03-23T10:55:58;95115.00;;;33.95;15.74
64668;BME280;51077;42.716;23.344;2024-03-23T10:58:46;95097.53;;;34.07;15.59
64668;BME280;51077;42.716;23.344;2024-03-23T11:01:13;95097.75;;;34.17;15.27
64668;BME280;51077;42.716;23.344;2024-03-23T11:03:39;95093.00;;;34.28;15.43
64668;BME280;51077;42.716;23.344;2024-03-23T11:06:09;95077.53;;;34.37;15.19
64668;BME280;51077;42.716;23.344;2024-03-23T11:08:37;95076.28;;;34.46;14.95
64668;BME280;51077;42.716;23.344;2024-03-23T11:11:17;95074.34;;;34.55;14.78
64668;BME280;51077;42.716;23.344;2024-03-23T11:13:47;95062.44;;;34.65;15.11
64668;BME280;51077;42.716;23.344;2024-03-23T11:16:22;95051.91;;;34.73;14.50
64668;BME280;51077;42.716;23.344;2024-03-23T11:18:49;95052.78;;;34.82;14.95
64668;BME280;51077;42.716;23.344;2024-03-23T11:22:07;95048.69;;;34.91;15.02
64668;BME280;51077;42.716;23.344;2024-03-23T11:24:25;95041.78;;;35.03;15.05
64668;BME280;51077;42.716;23.344;2024-03-23T11:26:51;95041.22;;;35.10;15.29
64668;BME280;51077;42.716;23.344;2024-03-23T11:29:17;95035.69;;;35.20;15.43
64668;BME280;51077;42.716;23.344;2024-03-23T11:31:50;95032.25;;;35.28;15.76
64668;BME280;51077;42.716;23.344;2024-03-23T11:34:16;95025.28;;;35.39;15.52
64668;BME280;51077;42.716;23.344;2024-03-23T11:36:43;95028.94;;;35.44;15.52
64668;BME280;51077;42.716;23.344;2024-03-23T11:39:19;95018.97;;;35.45;16.27
64668;BME280;51077;42.716;23.344;2024-03-23T11:41:49;95012.66;;;35.50;16.65
64668;BME280;51077;42.716;23.344;2024-03-23T11:44:19;95000.59;;;35.54;17.51
64668;BME280;51077;42.716;23.344;2024-03-23T11:46:46;95002.81;;;35.60;17.43
64668;BME280;51077;42.716;23.344;2024-03-23T11:49:22;94994.38;;;35.68;19.01
64668;BME280;51077;42.716;23.344;2024-03-23T11:51:48;94996.56;;;35.71;18.14
64668;BME280;51077;42.716;23.344;2024-03-23T11:54:14;94985.13;;;35.71;18.70
64668;BME280;51077;42.716;23.344;2024-03-23T11:56:39;94980.91;;;35.74;18.61
64668;BME280;51077;42.716;23.344;2024-03-23T11:59:06;94974.41;;;35.70;18.32
64668;BME280;51077;42.716;23.344;2024-03-23T12:01:32;94966.53;;;35.68;17.68
64668;BME280;51077;42.716;23.344;2024-03-23T12:03:57;94963.19;;;35.38;17.75
64668;BME280;51077;42.716;23.344;2024-03-23T12:06:22;94953.78;;;34.87;17.74
64668;BME280;51077;42.716;23.344;2024-03-23T12:08:48;94949.97;;;34.72;18.00
64668;BME280;51077;42.716;23.344;2024-03-23T12:11:16;94943.78;;;34.86;16.76
64668;BME280;51077;42.716;23.344;2024-03-23T12:13:43;94939.59;;;34.91;16.36
64668;BME280;51077;42.716;23.344;2024-03-23T12:16:11;94937.50;;;34.93;15.41
64668;BME280;51077;42.716;23.344;2024-03-23T12:18:38;94939.53;;;34.87;15.90
64668;BME280;51077;42.716;23.344;2024-03-23T12:21:04;94931.69;;;34.87;15.81
64668;BME280;51077;42.716;23.344;2024-03-23T12:23:29;94929.53;;;34.86;16.15
64668;BME280;51077;42.716;23.344;2024-03-23T12:25:55;94925.72;;;34.71;18.38
64668;BME280;51077;42.716;23.344;2024-03-23T12:28:20;94920.59;;;34.63;17.63
64668;BME280;51077;42.716;23.344;2024-03-23T12:30:46;94924.09;;;34.60;17.37
64668;BME280;51077;42.716;23.344;2024-03-23T12:33:11;94909.41;;;34.75;16.94
64668;BME280;51077;42.716;23.344;2024-03-23T12:35:36;94905.91;;;34.79;16.91
64668;BME280;51077;42.716;23.344;2024-03-23T12:38:02;94911.00;;;34.87;16.43
64668;BME280;51077;42.716;23.344;2024-03-23T12:40:28;94903.91;;;34.88;16.16
64668;BME280;51077;42.716;23.344;2024-03-23T12:42:53;94901.81;;;34.90;16.04
64668;BME280;51077;42.716;23.344;2024-03-23T12:45:19;94898.31;;;34.96;15.68
64668;BME280;51077;42.716;23.344;2024-03-23T12:47:44;94898.22;;;34.90;15.44
64668;BME280;51077;42.716;23.344;2024-03-23T12:50:10;94890.44;;;34.92;15.27
64668;BME280;51077;42.716;23.344;2024-03-23T12:52:36;94885.41;;;34.91;15.25
64668;BME280;51077;42.716;23.344;2024-03-23T12:55:02;94879.72;;;34.91;15.16
64668;BME280;51077;42.716;23.344;2024-03-23T12:57:30;94872.63;;;34.92;14.97
64668;BME280;51077;42.716;23.344;2024-03-23T12:59:57;94864.78;;;34.92;14.79
64668;BME280;51077;42.716;23.344;2024-03-23T13:02:23;94864.19;;;34.98;14.80
64668;BME280;51077;42.716;23.344;2024-03-23T13:04:52;94861.22;;;34.94;14.37
64668;BME280;51077;42.716;23.344;2024-03-23T13:07:19;94865.38;;;34.87;14.03
64668;BME280;51077;42.716;23.344;2024-03-23T13:09:45;94849.56;;;34.78;13.98
64668;BME280;51077;42.716;23.344;2024-03-23T13:12:11;94846.72;;;34.78;14.17
64668;BME280;51077;42.716;23.344;2024-03-23T13:14:39;94843.78;;;34.73;14.03
64668;BME280;51077;42.716;23.344;2024-03-23T13:17:06;94840.88;;;34.69;14.29
64668;BME280;51077;42.716;23.344;2024-03-23T13:19:32;94846.50;;;34.65;13.96
64668;BME280;51077;42.716;23.344;2024-03-23T13:21:58;94848.41;;;34.50;13.50
64668;BME280;51077;42.716;23.344;2024-03-23T13:24:24;94837.47;;;34.37;13.80
64668;BME280;51077;42.716;23.344;2024-03-23T13:26:54;94832.13;;;34.17;13.38
64668;BME280;51077;42.716;23.344;2024-03-23T13:29:20;94828.66;;;33.84;13.54
64668;BME280;51077;42.716;23.344;2024-03-23T13:31:46;94828.13;;;33.58;13.86
64668;BME280;51077;42.716;23.344;2024-03-23T13:34:12;94823.13;;;33.24;14.01
64668;BME280;51077;42.716;23.344;2024-03-23T13:36:43;94812.59;;;32.96;14.16
64668;BME280;51077;42.716;23.344;2024-03-23T13:39:09;94822.53;;;32.67;14.45